createdAt,value
2023-02-14T00:00:22.782Z,5.68
2023-02-14T00:02:52.470Z,5.68
2023-02-14T00:05:22.066Z,5.67
2023-02-14T00:07:54.264Z,5.63
2023-02-14T00:10:23.829Z,5.62
2023-02-14T00:12:53.442Z,5.57
2023-02-14T00:15:22.980Z,5.57
2023-02-14T00:17:53.079Z,5.56
2023-02-14T00:20:22.944Z,5.55
2023-02-14T00:22:55.202Z,5.54
2023-02-14T00:25:24.959Z,5.52
2023-02-14T00:27:55.690Z,5.55
2023-02-14T00:30:25.489Z,5.54
2023-02-14T00:32:55.146Z,5.55
2023-02-14T00:35:24.717Z,5.53
2023-02-14T00:37:56.933Z,5.53
2023-02-14T00:40:26.731Z,5.54
2023-02-14T00:42:56.333Z,5.56
2023-02-14T00:45:25.951Z,5.56
2023-02-14T00:47:55.580Z,5.56
2023-02-14T00:50:25.168Z,5.56
2023-02-14T00:52:57.353Z,5.53
2023-02-14T00:55:27.082Z,5.51
2023-02-14T00:57:56.975Z,5.49
2023-02-14T01:00:26.802Z,5.47
2023-02-14T01:02:58.405Z,5.44
2023-02-14T01:05:28.020Z,5.41
2023-02-14T01:08:00.311Z,5.40
2023-02-14T01:10:30.063Z,5.39
2023-02-14T01:13:01.414Z,5.38
2023-02-14T01:15:31.139Z,5.36
2023-02-14T01:18:24.167Z,5.35
2023-02-14T01:20:53.739Z,5.31
2023-02-14T01:23:25.898Z,5.30
2023-02-14T01:25:55.447Z,5.25
2023-02-14T01:28:25.049Z,5.22
2023-02-14T01:30:54.656Z,5.20
2023-02-14T01:33:24.400Z,5.14
2023-02-14T01:35:53.921Z,5.09
2023-02-14T01:38:26.112Z,5.06
2023-02-14T01:40:55.744Z,5.01
2023-02-14T01:43:27.676Z,4.97
2023-02-14T01:45:57.331Z,4.91
2023-02-14T01:48:27.713Z,4.87
2023-02-14T01:50:57.843Z,4.84
2023-02-14T01:53:31.863Z,4.82
2023-02-14T01:56:08.762Z,4.81
2023-02-14T01:58:41.448Z,4.83
2023-02-14T02:01:11.670Z,4.81
2023-02-14T02:03:44.160Z,4.79
2023-02-14T02:06:18.234Z,4.77
2023-02-14T02:08:55.098Z,4.75
2023-02-14T02:11:24.655Z,4.72
2023-02-14T02:13:54.260Z,4.70
2023-02-14T02:16:33.786Z,4.69
2023-02-14T02:19:33.479Z,4.66
2023-02-14T02:22:28.424Z,4.67
2023-02-14T02:25:03.366Z,4.67
2023-02-14T02:28:06.140Z,4.64
2023-02-14T02:31:10.754Z,4.60
2023-02-14T02:34:06.658Z,4.56
2023-02-14T02:37:11.073Z,4.54
2023-02-14T02:39:52.392Z,4.51
2023-02-14T02:42:28.190Z,4.47
2023-02-14T02:45:06.292Z,4.45
2023-02-14T02:47:40.586Z,4.39
2023-02-14T02:50:34.161Z,4.36
2023-02-14T02:53:10.719Z,4.31
2023-02-14T02:55:58.456Z,4.27
2023-02-14T02:58:31.048Z,4.25
2023-02-14T03:01:02.785Z,4.22
2023-02-14T03:03:45.699Z,4.21
2023-02-14T03:06:15.310Z,4.18
2023-02-14T03:08:47.511Z,4.14
2023-02-14T03:11:17.682Z,4.14
2023-02-14T03:14:03.559Z,4.14
2023-02-14T03:16:46.071Z,4.15
2023-02-14T03:19:34.578Z,4.15
2023-02-14T03:22:10.214Z,4.14
2023-02-14T03:24:47.714Z,4.14
2023-02-14T03:27:22.892Z,4.11
2023-02-14T03:29:59.125Z,4.08
2023-02-14T03:32:35.763Z,4.04
2023-02-14T03:35:12.737Z,4.00
2023-02-14T03:37:46.788Z,3.96
2023-02-14T03:40:22.793Z,3.90
2023-02-14T03:42:55.332Z,3.85
2023-02-14T03:45:28.340Z,3.77
2023-02-14T03:47:59.447Z,3.70
2023-02-14T03:50:31.240Z,3.62
2023-02-14T03:53:01.681Z,3.53
2023-02-14T03:55:37.720Z,3.46
2023-02-14T03:58:12.236Z,3.38
2023-02-14T04:00:43.776Z,3.31
2023-02-14T04:03:15.372Z,3.25
2023-02-14T04:05:46.792Z,3.19
2023-02-14T04:08:23.602Z,3.15
2023-02-14T04:10:56.830Z,3.10
2023-02-14T04:13:26.560Z,3.08
2023-02-14T04:15:56.217Z,3.05
2023-02-14T04:18:38.070Z,3.01
2023-02-14T04:21:08.207Z,2.96
2023-02-14T04:23:37.799Z,2.92
2023-02-14T04:26:10.363Z,2.90
2023-02-14T04:28:39.964Z,2.87
2023-02-14T04:31:11.148Z,2.84
2023-02-14T04:33:41.721Z,2.80
2023-02-14T04:36:11.508Z,2.78
2023-02-14T04:38:41.052Z,2.74
2023-02-14T04:41:13.671Z,2.72
2023-02-14T04:43:43.277Z,2.68
2023-02-14T04:46:12.989Z,2.67
2023-02-14T04:48:42.552Z,2.64
2023-02-14T04:51:12.143Z,2.61
2023-02-14T04:53:41.737Z,2.58
2023-02-14T04:56:14.062Z,2.58
2023-02-14T04:58:43.642Z,2.61
2023-02-14T05:01:13.270Z,2.61
2023-02-14T05:03:43.401Z,2.63
2023-02-14T05:06:13.073Z,2.65
2023-02-14T05:08:42.659Z,2.66
2023-02-14T05:11:14.919Z,2.66
2023-02-14T05:13:44.520Z,2.66
2023-02-14T05:16:14.127Z,2.67
2023-02-14T05:18:43.773Z,2.70
2023-02-14T05:21:13.437Z,2.73
2023-02-14T05:23:43.060Z,2.72
2023-02-14T05:26:15.266Z,2.73
2023-02-14T05:28:44.889Z,2.74
2023-02-14T05:31:14.551Z,2.74
2023-02-14T05:33:44.193Z,2.74
2023-02-14T05:36:13.999Z,2.75
2023-02-14T05:38:43.620Z,2.78
2023-02-14T05:41:15.885Z,2.79
2023-02-14T05:43:45.464Z,2.83
2023-02-14T05:46:15.093Z,2.86
2023-02-14T05:48:45.860Z,2.90
2023-02-14T05:51:15.534Z,2.97
2023-02-14T05:53:45.156Z,3.03
2023-02-14T05:56:17.369Z,3.11
2023-02-14T05:58:46.997Z,3.16
2023-02-14T06:01:16.612Z,3.19
2023-02-14T06:03:46.663Z,3.21
2023-02-14T06:06:16.259Z,3.24
2023-02-14T06:08:45.856Z,3.25
2023-02-14T06:11:18.023Z,3.24
2023-02-14T06:13:47.636Z,3.26
2023-02-14T06:16:17.361Z,3.27
2023-02-14T06:18:46.963Z,3.28
2023-02-14T06:21:16.528Z,3.28
2023-02-14T06:23:46.093Z,3.28
2023-02-14T06:26:18.298Z,3.29
2023-02-14T06:28:47.919Z,3.27
2023-02-14T06:31:20.579Z,3.26
2023-02-14T06:33:50.210Z,3.24
2023-02-14T06:36:19.815Z,3.21
2023-02-14T06:38:50.512Z,3.20
2023-02-14T06:41:22.684Z,3.24
2023-02-14T06:43:52.290Z,3.27
2023-02-14T06:46:22.228Z,3.30
2023-02-14T06:48:52.028Z,3.31
2023-02-14T06:51:21.672Z,3.30
2023-02-14T06:53:51.349Z,3.31
2023-02-14T06:56:23.809Z,3.35
2023-02-14T06:58:53.411Z,3.37
2023-02-14T07:01:23.440Z,3.41
2023-02-14T07:03:53.507Z,3.46
2023-02-14T07:06:23.290Z,3.50
2023-02-14T07:08:52.947Z,3.56
2023-02-14T07:11:25.899Z,3.66
2023-02-14T07:13:55.603Z,3.87
2023-02-14T07:16:26.027Z,4.19
2023-02-14T07:18:55.949Z,4.48
2023-02-14T07:21:25.812Z,4.68
2023-02-14T07:23:55.419Z,4.75
2023-02-14T07:26:27.691Z,4.71
2023-02-14T07:28:57.274Z,4.65
2023-02-14T07:31:27.245Z,4.68
2023-02-14T07:33:56.952Z,4.85
2023-02-14T07:36:26.657Z,5.12
2023-02-14T07:38:56.249Z,5.36
2023-02-14T07:41:28.429Z,5.65
2023-02-14T07:43:58.046Z,5.91
2023-02-14T07:46:27.690Z,6.19
2023-02-14T07:48:57.322Z,6.50
2023-02-14T07:51:26.973Z,6.79
2023-02-14T07:53:56.648Z,7.15
2023-02-14T07:56:29.151Z,7.50
2023-02-14T07:58:58.762Z,7.88
2023-02-14T08:01:28.501Z,8.15
2023-02-14T08:03:58.137Z,8.38
2023-02-14T08:06:28.697Z,8.63
2023-02-14T08:08:58.576Z,8.86
2023-02-14T08:11:43.235Z,9.07
2023-02-14T08:14:12.810Z,9.22
2023-02-14T08:16:42.773Z,9.44
2023-02-14T08:19:12.327Z,9.73
2023-02-14T08:21:42.482Z,10.08
2023-02-14T08:24:12.095Z,10.53
2023-02-14T08:26:44.268Z,10.99
2023-02-14T08:29:16.586Z,11.56
2023-02-14T08:31:47.528Z,12.02
2023-02-14T08:34:17.740Z,12.31
2023-02-14T08:36:47.590Z,12.54
2023-02-14T08:39:17.575Z,12.72
2023-02-14T08:41:49.714Z,12.91
2023-02-14T08:44:19.285Z,13.14
2023-02-14T08:46:48.940Z,13.48
2023-02-14T08:49:18.671Z,13.73
2023-02-14T08:51:48.323Z,13.95
2023-02-14T08:54:17.912Z,14.42
2023-02-14T08:56:50.171Z,14.98
2023-02-14T08:59:19.785Z,15.36
2023-02-14T09:01:49.342Z,15.73
2023-02-14T09:04:19.004Z,15.99
2023-02-14T09:06:48.598Z,16.27
2023-02-14T09:09:19.510Z,16.56
2023-02-14T09:11:51.728Z,16.71
2023-02-14T09:14:21.841Z,16.74
2023-02-14T09:16:51.521Z,16.88
2023-02-14T09:19:21.174Z,16.83
2023-02-14T09:21:50.791Z,16.75
2023-02-14T09:24:20.349Z,16.79
2023-02-14T09:26:52.520Z,17.01
2023-02-14T09:29:22.110Z,17.27
2023-02-14T09:31:51.799Z,17.44
2023-02-14T09:34:33.980Z,17.73
2023-02-14T09:37:06.258Z,17.93
2023-02-14T09:39:36.100Z,18.25
2023-02-14T09:42:35.363Z,18.44
2023-02-14T09:45:07.907Z,18.48
2023-02-14T09:47:40.223Z,18.66
2023-02-14T09:50:18.157Z,18.72
2023-02-14T09:52:50.449Z,18.56
2023-02-14T09:55:21.022Z,18.32
2023-02-14T09:58:04.135Z,18.10
2023-02-14T10:00:39.015Z,18.05
2023-02-14T10:03:24.492Z,18.06
2023-02-14T10:06:00.276Z,17.85
2023-02-14T10:08:44.461Z,17.69
2023-02-14T10:11:14.854Z,17.58
2023-02-14T10:13:50.899Z,17.56
2023-02-14T10:16:27.204Z,17.45
2023-02-14T10:19:00.091Z,17.37
2023-02-14T10:21:32.186Z,17.27
2023-02-14T10:24:08.430Z,17.08
2023-02-14T10:26:41.290Z,16.85
2023-02-14T10:29:16.975Z,16.34
2023-02-14T10:31:55.869Z,15.79
2023-02-14T10:34:31.175Z,15.23
2023-02-14T10:37:17.525Z,14.66
2023-02-14T10:40:05.822Z,14.00
2023-02-14T10:42:41.400Z,13.43
2023-02-14T10:45:21.283Z,12.93
2023-02-14T10:47:57.011Z,12.49
2023-02-14T10:50:34.429Z,12.07
2023-02-14T10:53:12.905Z,11.76
2023-02-14T10:55:49.216Z,11.49
2023-02-14T10:58:21.220Z,11.29
2023-02-14T11:01:04.779Z,11.14
2023-02-14T11:03:36.266Z,10.98
2023-02-14T11:06:06.132Z,10.86
2023-02-14T11:08:37.982Z,10.76
2023-02-14T11:11:16.732Z,10.65
2023-02-14T11:13:47.076Z,10.58
2023-02-14T11:16:26.560Z,10.54
2023-02-14T11:19:11.389Z,10.47
2023-02-14T11:21:41.823Z,10.41
2023-02-14T11:24:20.529Z,10.37
2023-02-14T11:26:53.057Z,10.32
2023-02-14T11:29:31.265Z,10.27
2023-02-14T11:32:10.472Z,10.23
2023-02-14T11:34:41.898Z,10.23
2023-02-14T11:37:21.666Z,10.26
2023-02-14T11:39:52.189Z,10.28
2023-02-14T11:42:41.699Z,10.31
2023-02-14T11:45:29.528Z,10.32
2023-02-14T11:48:34.917Z,10.35
2023-02-14T11:51:09.009Z,10.39
2023-02-14T11:53:46.579Z,10.43
2023-02-14T11:56:17.600Z,10.45
2023-02-14T11:58:51.982Z,10.50
2023-02-14T12:01:26.560Z,10.53
2023-02-14T12:04:01.758Z,10.57
2023-02-14T12:06:32.935Z,10.64
2023-02-14T12:09:14.612Z,10.72
2023-02-14T12:11:44.263Z,10.79
2023-02-14T12:14:24.595Z,10.89
2023-02-14T12:17:00.363Z,10.94
2023-02-14T12:19:38.322Z,10.95
2023-02-14T12:22:09.560Z,10.94
2023-02-14T12:24:41.503Z,10.93
2023-02-14T12:27:22.705Z,10.96
2023-02-14T12:29:55.272Z,11.01
2023-02-14T12:32:27.565Z,11.07
2023-02-14T12:35:05.979Z,11.13
2023-02-14T12:37:45.507Z,11.18
2023-02-14T12:40:24.422Z,11.23
2023-02-14T12:43:06.522Z,11.28
2023-02-14T12:45:54.475Z,11.29
2023-02-14T12:48:31.873Z,11.28
2023-02-14T12:51:09.932Z,11.27
2023-02-14T12:53:50.624Z,11.28
2023-02-14T12:56:27.705Z,11.30
2023-02-14T12:59:05.702Z,11.29
2023-02-14T13:01:58.406Z,11.29
2023-02-14T13:04:56.305Z,11.25
2023-02-14T13:07:40.264Z,11.26
2023-02-14T13:10:19.055Z,11.27
2023-02-14T13:12:55.227Z,11.28
2023-02-14T13:15:33.068Z,11.31
2023-02-14T13:18:08.144Z,11.32
2023-02-14T13:20:44.551Z,11.33
2023-02-14T13:23:20.069Z,11.38
2023-02-14T13:25:53.225Z,11.43
2023-02-14T13:28:23.041Z,11.45
2023-02-14T13:30:52.734Z,11.48
2023-02-14T13:33:28.686Z,11.49
2023-02-14T13:36:00.815Z,11.48
2023-02-14T13:38:34.802Z,11.46
2023-02-14T13:41:05.518Z,11.43
2023-02-14T13:43:52.057Z,11.43
2023-02-14T13:46:23.307Z,11.45
2023-02-14T13:49:01.032Z,11.46
2023-02-14T13:51:49.069Z,11.49
2023-02-14T13:54:32.914Z,11.48
2023-02-14T13:57:03.845Z,11.46
2023-02-14T13:59:34.974Z,11.45
2023-02-14T14:02:37.550Z,11.45
2023-02-14T14:05:48.514Z,11.44
2023-02-14T14:08:55.041Z,11.46
2023-02-14T14:12:03.947Z,11.47
2023-02-14T14:14:40.564Z,11.46
2023-02-14T14:17:28.278Z,11.48
2023-02-14T14:19:58.226Z,11.50
2023-02-14T14:22:28.308Z,11.51
2023-02-14T14:24:59.716Z,11.51
2023-02-14T14:27:33.238Z,11.50
2023-02-14T14:30:07.953Z,11.50
2023-02-14T14:32:39.416Z,11.51
2023-02-14T14:35:20.736Z,11.52
2023-02-14T14:37:54.531Z,11.51
2023-02-14T14:40:28.713Z,11.51
2023-02-14T14:43:02.518Z,11.50
2023-02-14T14:45:35.035Z,11.51
2023-02-14T14:48:11.348Z,11.51
2023-02-14T14:50:41.701Z,11.50
2023-02-14T14:53:18.303Z,11.47
2023-02-14T14:55:52.116Z,11.45
2023-02-14T14:58:37.480Z,11.44
2023-02-14T15:01:13.175Z,11.41
2023-02-14T15:03:43.137Z,11.40
2023-02-14T15:06:20.112Z,11.41
2023-02-14T15:08:51.540Z,11.40
2023-02-14T15:11:36.248Z,11.38
2023-02-14T15:14:06.271Z,11.34
2023-02-14T15:16:44.963Z,11.32
2023-02-14T15:19:21.707Z,11.27
2023-02-14T15:21:52.210Z,11.25
2023-02-14T15:24:22.556Z,11.22
2023-02-14T15:26:53.513Z,11.23
2023-02-14T15:29:25.935Z,11.23
2023-02-14T15:32:02.435Z,11.22
2023-02-14T15:34:36.113Z,11.20
2023-02-14T15:37:06.902Z,11.17
2023-02-14T15:39:39.748Z,11.16
2023-02-14T15:42:22.658Z,11.14
2023-02-14T15:44:52.226Z,11.12
2023-02-14T15:47:24.939Z,11.07
2023-02-14T15:49:54.527Z,11.06
2023-02-14T15:52:24.708Z,11.05
2023-02-14T15:54:54.340Z,11.03
2023-02-14T15:57:26.888Z,11.04
2023-02-14T15:59:56.579Z,11.00
2023-02-14T16:02:37.796Z,10.99
2023-02-14T16:05:09.243Z,10.96
2023-02-14T16:07:38.905Z,10.90
2023-02-14T16:10:24.858Z,10.81
2023-02-14T16:13:02.059Z,10.70
2023-02-14T16:15:33.634Z,10.61
2023-02-14T16:18:08.394Z,10.53
2023-02-14T16:20:45.320Z,10.45
2023-02-14T16:23:23.872Z,10.39
2023-02-14T16:25:54.080Z,10.30
2023-02-14T16:28:24.304Z,10.21
2023-02-14T16:30:57.583Z,10.12
2023-02-14T16:33:33.656Z,10.03
2023-02-14T16:36:09.246Z,9.95
2023-02-14T16:38:45.163Z,9.84
2023-02-14T16:41:19.692Z,9.73
2023-02-14T16:43:50.103Z,9.61
2023-02-14T16:46:21.960Z,9.51
2023-02-14T16:48:54.880Z,9.39
2023-02-14T16:51:26.190Z,9.27
2023-02-14T16:53:56.787Z,9.14
2023-02-14T16:56:29.522Z,9.02
2023-02-14T16:59:00.536Z,8.92
2023-02-14T17:01:32.212Z,8.84
2023-02-14T17:04:04.791Z,8.79
2023-02-14T17:06:36.091Z,8.76
2023-02-14T17:09:08.913Z,8.73
2023-02-14T17:11:41.204Z,8.69
2023-02-14T17:14:11.519Z,8.64
2023-02-14T17:16:41.457Z,8.57
2023-02-14T17:19:13.648Z,8.49
2023-02-14T17:21:43.412Z,8.42
2023-02-14T17:24:12.960Z,8.37
2023-02-14T17:26:42.581Z,8.28
2023-02-14T17:29:13.465Z,8.22
2023-02-14T17:31:44.073Z,8.14
2023-02-14T17:34:16.365Z,8.03
2023-02-14T17:36:46.001Z,7.94
2023-02-14T17:39:15.580Z,7.85
2023-02-14T17:41:45.235Z,7.76
2023-02-14T17:44:14.830Z,7.64
2023-02-14T17:46:44.553Z,7.54
2023-02-14T17:49:16.955Z,7.44
2023-02-14T17:51:46.589Z,7.34
2023-02-14T17:54:16.172Z,7.31
2023-02-14T17:56:45.751Z,7.28
2023-02-14T17:59:15.321Z,7.25
2023-02-14T18:01:45.050Z,7.22
2023-02-14T18:04:17.720Z,7.19
2023-02-14T18:06:47.697Z,7.16
2023-02-14T18:09:17.486Z,7.12
2023-02-14T18:11:47.260Z,7.07
2023-02-14T18:14:16.866Z,7.05
2023-02-14T18:16:48.433Z,6.99
2023-02-14T18:19:20.673Z,6.93
2023-02-14T18:21:50.377Z,6.89
2023-02-14T18:24:20.091Z,6.84
2023-02-14T18:26:49.748Z,6.78
2023-02-14T18:29:19.549Z,6.74
2023-02-14T18:31:49.330Z,6.74
2023-02-14T18:34:21.587Z,6.76
2023-02-14T18:36:51.130Z,6.75
2023-02-14T18:39:21.082Z,6.69
2023-02-14T18:41:50.715Z,6.64
2023-02-14T18:44:21.986Z,6.54
2023-02-14T18:46:51.686Z,6.43
2023-02-14T18:49:24.073Z,6.32
2023-02-14T18:51:54.841Z,6.23
2023-02-14T18:54:24.658Z,6.18
2023-02-14T18:56:54.360Z,6.12
2023-02-14T18:59:24.265Z,6.08
2023-02-14T19:01:54.463Z,6.01
2023-02-14T19:04:26.833Z,5.96
2023-02-14T19:06:56.557Z,5.91
2023-02-14T19:09:28.457Z,5.87
2023-02-14T19:12:00.100Z,5.84
2023-02-14T19:14:29.914Z,5.83
2023-02-14T19:16:59.468Z,5.81
2023-02-14T19:19:31.744Z,5.77
2023-02-14T19:22:01.984Z,5.75
2023-02-14T19:24:32.273Z,5.74
2023-02-14T19:27:02.252Z,5.72
2023-02-14T19:29:32.154Z,5.70
2023-02-14T19:32:02.284Z,5.69
2023-02-14T19:34:36.169Z,5.69
2023-02-14T19:37:06.502Z,5.68
2023-02-14T19:39:36.234Z,5.68
2023-02-14T19:42:06.235Z,5.67
2023-02-14T19:44:36.090Z,5.68
2023-02-14T19:47:22.809Z,5.68
2023-02-14T19:49:59.166Z,5.68
2023-02-14T19:52:29.041Z,5.69
2023-02-14T19:54:58.887Z,5.68
2023-02-14T19:57:28.730Z,5.67
2023-02-14T19:59:58.387Z,5.62
2023-02-14T20:02:28.007Z,5.59
2023-02-14T20:05:04.346Z,5.58
2023-02-14T20:07:33.959Z,5.55
2023-02-14T20:10:04.581Z,5.51
2023-02-14T20:12:34.319Z,5.50
2023-02-14T20:15:05.611Z,5.48
2023-02-14T20:17:35.427Z,5.46
2023-02-14T20:20:08.828Z,5.47
2023-02-14T20:22:38.436Z,5.45
2023-02-14T20:25:09.858Z,5.46
2023-02-14T20:27:39.774Z,5.43
2023-02-14T20:30:11.118Z,5.39
2023-02-14T20:32:40.813Z,5.37
2023-02-14T20:35:13.484Z,5.33
2023-02-14T20:37:43.285Z,5.30
2023-02-14T20:40:14.192Z,5.27
2023-02-14T20:42:43.905Z,5.27
2023-02-14T20:45:15.096Z,5.24
2023-02-14T20:47:44.785Z,5.22
2023-02-14T20:50:17.059Z,5.19
2023-02-14T20:52:46.620Z,5.15
2023-02-14T20:55:16.185Z,5.09
2023-02-14T20:57:45.765Z,5.05
2023-02-14T21:00:16.247Z,5.00
2023-02-14T21:02:46.389Z,4.98
2023-02-14T21:05:19.317Z,4.96
2023-02-14T21:07:48.886Z,4.91
2023-02-14T21:10:18.951Z,4.90
2023-02-14T21:12:49.042Z,4.88
2023-02-14T21:15:18.843Z,4.83
2023-02-14T21:17:48.419Z,4.78
2023-02-14T21:20:22.910Z,4.73
2023-02-14T21:22:52.507Z,4.67
2023-02-14T21:25:24.758Z,4.65
2023-02-14T21:27:55.433Z,4.66
2023-02-14T21:30:25.080Z,4.66
2023-02-14T21:32:54.964Z,4.67
2023-02-14T21:35:27.558Z,4.64
2023-02-14T21:37:57.202Z,4.64
2023-02-14T21:40:26.903Z,4.64
2023-02-14T21:42:56.643Z,4.63
2023-02-14T21:45:39.066Z,4.61
2023-02-14T21:48:21.149Z,4.56
2023-02-14T21:50:53.369Z,4.54
2023-02-14T21:53:23.002Z,4.49
2023-02-14T21:55:53.036Z,4.47
2023-02-14T21:58:22.622Z,4.43
2023-02-14T22:00:52.178Z,4.43
2023-02-14T22:03:22.055Z,4.43
2023-02-14T22:05:54.624Z,4.43
2023-02-14T22:08:24.603Z,4.41
2023-02-14T22:10:54.260Z,4.39
2023-02-14T22:13:23.879Z,4.37
2023-02-14T22:15:53.687Z,4.34
2023-02-14T22:18:23.460Z,4.32
2023-02-14T22:20:55.734Z,4.28
2023-02-14T22:23:27.727Z,4.22
2023-02-14T22:25:58.623Z,4.17
2023-02-14T22:28:28.215Z,4.13
2023-02-14T22:30:57.832Z,4.09
2023-02-14T22:33:27.444Z,4.07
2023-02-14T22:36:00.742Z,4.07
2023-02-14T22:38:31.001Z,4.04
2023-02-14T22:41:00.927Z,4.02
2023-02-14T22:43:30.680Z,4.01
2023-02-14T22:46:04.923Z,3.99
2023-02-14T22:48:34.945Z,3.97
2023-02-14T22:51:22.936Z,3.95
2023-02-14T22:53:53.754Z,3.93
2023-02-14T22:56:25.929Z,3.93
2023-02-14T22:58:56.984Z,3.90
2023-02-14T23:01:27.200Z,3.86
2023-02-14T23:03:57.975Z,3.82
2023-02-14T23:06:32.464Z,3.80
2023-02-14T23:09:02.210Z,3.78
2023-02-14T23:11:33.895Z,3.74
2023-02-14T23:14:15.951Z,3.71
2023-02-14T23:16:58.437Z,3.68
2023-02-14T23:19:43.382Z,3.65
2023-02-14T23:22:17.026Z,3.61
2023-02-14T23:24:48.224Z,3.56
2023-02-14T23:27:18.948Z,3.52
2023-02-14T23:29:48.634Z,3.49
2023-02-14T23:32:18.715Z,3.45
2023-02-14T23:34:48.524Z,3.38
2023-02-14T23:37:20.712Z,3.35
2023-02-14T23:39:50.697Z,3.30
2023-02-14T23:42:20.542Z,3.22
2023-02-14T23:44:50.103Z,3.18
2023-02-14T23:47:20.306Z,3.11
2023-02-14T23:49:50.122Z,3.08
2023-02-14T23:52:22.298Z,3.07
2023-02-14T23:54:51.911Z,3.07
2023-02-14T23:57:21.630Z,3.08
2023-02-14T23:59:51.189Z,3.09
